sensor_id;sensor_type;location;lat;lon;timestamp;P1;durP1;ratioP1;P2;durP2;ratioP2
44508;SDS011;30214;52.246;14.408;2023-05-20T00:01:51;8.70;;;3.90;;
44508;SDS011;30214;52.246;14.408;2023-05-20T00:04:18;6.95;;;3.88;;
44508;SDS011;30214;52.246;14.408;2023-05-20T00:06:45;7.55;;;4.28;;
44508;SDS011;30214;52.246;14.408;2023-05-20T00:09:12;6.57;;;3.75;;
44508;SDS011;30214;52.246;14.408;2023-05-20T00:11:42;6.78;;;4.07;;
44508;SDS011;30214;52.246;14.408;2023-05-20T00:14:09;8.52;;;3.88;;
44508;SDS011;30214;52.246;14.408;2023-05-20T00:16:40;8.32;;;3.83;;
44508;SDS011;30214;52.246;14.408;2023-05-20T00:19:07;7.47;;;3.83;;
44508;SDS011;30214;52.246;14.408;2023-05-20T00:21:34;8.77;;;4.50;;
44508;SDS011;30214;52.246;14.408;2023-05-20T00:24:01;7.85;;;4.05;;
44508;SDS011;30214;52.246;14.408;2023-05-20T00:26:29;9.15;;;3.92;;
44508;SDS011;30214;52.246;14.408;2023-05-20T00:28:58;7.93;;;4.15;;
44508;SDS011;30214;52.246;14.408;2023-05-20T00:31:25;8.18;;;4.00;;
44508;SDS011;30214;52.246;14.408;2023-05-20T00:33:52;5.88;;;3.55;;
44508;SDS011;30214;52.246;14.408;2023-05-20T00:36:19;8.85;;;3.90;;
44508;SDS011;30214;52.246;14.408;2023-05-20T00:38:46;8.15;;;3.80;;
44508;SDS011;30214;52.246;14.408;2023-05-20T00:41:13;6.47;;;4.18;;
44508;SDS011;30214;52.246;14.408;2023-05-20T00:43:41;7.50;;;3.60;;
44508;SDS011;30214;52.246;14.408;2023-05-20T00:46:09;7.13;;;3.90;;
44508;SDS011;30214;52.246;14.408;2023-05-20T00:48:39;7.45;;;3.78;;
44508;SDS011;30214;52.246;14.408;2023-05-20T00:51:08;8.20;;;3.90;;
44508;SDS011;30214;52.246;14.408;2023-05-20T00:53:36;8.48;;;3.92;;
44508;SDS011;30214;52.246;14.408;2023-05-20T00:56:05;7.68;;;3.83;;
44508;SDS011;30214;52.246;14.408;2023-05-20T00:58:33;7.75;;;3.83;;
44508;SDS011;30214;52.246;14.408;2023-05-20T01:01:03;9.25;;;3.80;;
44508;SDS011;30214;52.246;14.408;2023-05-20T01:03:32;6.05;;;3.83;;
44508;SDS011;30214;52.246;14.408;2023-05-20T01:05:59;6.88;;;3.63;;
44508;SDS011;30214;52.246;14.408;2023-05-20T01:08:27;5.70;;;3.78;;
44508;SDS011;30214;52.246;14.408;2023-05-20T01:10:55;7.95;;;3.95;;
44508;SDS011;30214;52.246;14.408;2023-05-20T01:13:30;6.35;;;3.45;;
44508;SDS011;30214;52.246;14.408;2023-05-20T01:16:02;8.73;;;3.67;;
44508;SDS011;30214;52.246;14.408;2023-05-20T01:18:30;6.05;;;3.55;;
44508;SDS011;30214;52.246;14.408;2023-05-20T01:21:00;6.63;;;3.90;;
44508;SDS011;30214;52.246;14.408;2023-05-20T01:23:36;7.40;;;3.72;;
44508;SDS011;30214;52.246;14.408;2023-05-20T01:26:08;7.75;;;3.50;;
44508;SDS011;30214;52.246;14.408;2023-05-20T01:28:37;7.90;;;3.67;;
44508;SDS011;30214;52.246;14.408;2023-05-20T01:31:05;8.60;;;3.50;;
44508;SDS011;30214;52.246;14.408;2023-05-20T01:33:40;7.38;;;3.80;;
44508;SDS011;30214;52.246;14.408;2023-05-20T01:36:08;7.07;;;3.78;;
44508;SDS011;30214;52.246;14.408;2023-05-20T01:38:37;7.13;;;3.65;;
44508;SDS011;30214;52.246;14.408;2023-05-20T01:41:06;8.00;;;4.20;;
44508;SDS011;30214;52.246;14.408;2023-05-20T01:43:34;8.45;;;3.63;;
44508;SDS011;30214;52.246;14.408;2023-05-20T01:46:04;5.95;;;3.85;;
44508;SDS011;30214;52.246;14.408;2023-05-20T01:48:31;6.57;;;3.63;;
44508;SDS011;30214;52.246;14.408;2023-05-20T01:50:59;8.55;;;3.63;;
44508;SDS011;30214;52.246;14.408;2023-05-20T01:53:26;7.65;;;3.60;;
44508;SDS011;30214;52.246;14.408;2023-05-20T01:55:55;8.32;;;4.03;;
44508;SDS011;30214;52.246;14.408;2023-05-20T01:58:22;6.43;;;3.55;;
44508;SDS011;30214;52.246;14.408;2023-05-20T02:00:50;8.48;;;3.80;;
44508;SDS011;30214;52.246;14.408;2023-05-20T02:03:17;8.38;;;4.07;;
44508;SDS011;30214;52.246;14.408;2023-05-20T02:05:47;8.77;;;3.63;;
44508;SDS011;30214;52.246;14.408;2023-05-20T02:08:14;8.68;;;4.00;;
44508;SDS011;30214;52.246;14.408;2023-05-20T02:10:42;6.93;;;3.70;;
44508;SDS011;30214;52.246;14.408;2023-05-20T02:13:12;7.18;;;3.60;;
44508;SDS011;30214;52.246;14.408;2023-05-20T02:15:40;7.93;;;3.78;;
44508;SDS011;30214;52.246;14.408;2023-05-20T02:18:07;7.80;;;3.85;;
44508;SDS011;30214;52.246;14.408;2023-05-20T02:20:36;9.30;;;3.83;;
44508;SDS011;30214;52.246;14.408;2023-05-20T02:23:03;8.25;;;3.80;;
44508;SDS011;30214;52.246;14.408;2023-05-20T02:25:30;6.43;;;3.88;;
44508;SDS011;30214;52.246;14.408;2023-05-20T02:27:57;9.32;;;3.40;;
44508;SDS011;30214;52.246;14.408;2023-05-20T02:30:27;11.00;;;4.03;;
44508;SDS011;30214;52.246;14.408;2023-05-20T02:32:55;7.75;;;3.65;;
44508;SDS011;30214;52.246;14.408;2023-05-20T02:35:23;11.35;;;4.03;;
44508;SDS011;30214;52.246;14.408;2023-05-20T02:37:51;5.75;;;3.67;;
44508;SDS011;30214;52.246;14.408;2023-05-20T02:40:18;7.85;;;3.92;;
44508;SDS011;30214;52.246;14.408;2023-05-20T02:42:45;9.00;;;4.30;;
44508;SDS011;30214;52.246;14.408;2023-05-20T02:45:15;6.53;;;3.92;;
44508;SDS011;30214;52.246;14.408;2023-05-20T02:47:45;7.57;;;3.67;;
44508;SDS011;30214;52.246;14.408;2023-05-20T02:50:12;8.73;;;3.75;;
44508;SDS011;30214;52.246;14.408;2023-05-20T02:52:39;8.48;;;4.20;;
44508;SDS011;30214;52.246;14.408;2023-05-20T02:55:07;8.52;;;4.30;;
44508;SDS011;30214;52.246;14.408;2023-05-20T02:57:35;8.15;;;4.10;;
44508;SDS011;30214;52.246;14.408;2023-05-20T03:00:04;7.10;;;4.10;;
44508;SDS011;30214;52.246;14.408;2023-05-20T03:02:35;6.88;;;4.10;;
44508;SDS011;30214;52.246;14.408;2023-05-20T03:05:04;6.90;;;4.15;;
44508;SDS011;30214;52.246;14.408;2023-05-20T03:07:34;8.63;;;4.32;;
44508;SDS011;30214;52.246;14.408;2023-05-20T03:10:01;8.07;;;4.00;;
44508;SDS011;30214;52.246;14.408;2023-05-20T03:12:29;8.73;;;4.30;;
44508;SDS011;30214;52.246;14.408;2023-05-20T03:14:56;7.38;;;4.18;;
44508;SDS011;30214;52.246;14.408;2023-05-20T03:17:24;9.82;;;4.20;;
44508;SDS011;30214;52.246;14.408;2023-05-20T03:19:51;11.18;;;4.60;;
44508;SDS011;30214;52.246;14.408;2023-05-20T03:22:20;9.02;;;4.10;;
44508;SDS011;30214;52.246;14.408;2023-05-20T03:24:47;6.90;;;3.95;;
44508;SDS011;30214;52.246;14.408;2023-05-20T03:27:15;8.38;;;4.43;;
44508;SDS011;30214;52.246;14.408;2023-05-20T03:29:42;10.07;;;4.50;;
44508;SDS011;30214;52.246;14.408;2023-05-20T03:32:09;7.88;;;4.18;;
44508;SDS011;30214;52.246;14.408;2023-05-20T03:34:36;7.68;;;4.43;;
44508;SDS011;30214;52.246;14.408;2023-05-20T03:37:04;7.78;;;4.78;;
44508;SDS011;30214;52.246;14.408;2023-05-20T03:39:32;11.52;;;4.68;;
44508;SDS011;30214;52.246;14.408;2023-05-20T03:42:00;12.68;;;4.78;;
44508;SDS011;30214;52.246;14.408;2023-05-20T03:44:27;10.10;;;5.10;;
44508;SDS011;30214;52.246;14.408;2023-05-20T03:46:54;12.30;;;5.28;;
44508;SDS011;30214;52.246;14.408;2023-05-20T03:49:22;9.50;;;4.88;;
44508;SDS011;30214;52.246;14.408;2023-05-20T03:51:49;8.98;;;4.63;;
44508;SDS011;30214;52.246;14.408;2023-05-20T03:54:16;9.32;;;4.68;;
44508;SDS011;30214;52.246;14.408;2023-05-20T03:56:49;7.68;;;4.85;;
44508;SDS011;30214;52.246;14.408;2023-05-20T03:59:17;12.02;;;5.45;;
44508;SDS011;30214;52.246;14.408;2023-05-20T04:01:44;9.45;;;4.95;;
44508;SDS011;30214;52.246;14.408;2023-05-20T04:04:11;12.20;;;5.15;;
44508;SDS011;30214;52.246;14.408;2023-05-20T04:06:38;10.73;;;5.32;;
44508;SDS011;30214;52.246;14.408;2023-05-20T04:09:05;11.02;;;4.75;;
44508;SDS011;30214;52.246;14.408;2023-05-20T04:11:32;10.05;;;5.50;;
44508;SDS011;30214;52.246;14.408;2023-05-20T04:14:01;8.82;;;4.90;;
44508;SDS011;30214;52.246;14.408;2023-05-20T04:16:28;9.13;;;5.03;;
44508;SDS011;30214;52.246;14.408;2023-05-20T04:18:55;11.52;;;5.35;;
44508;SDS011;30214;52.246;14.408;2023-05-20T04:21:25;9.80;;;4.95;;
44508;SDS011;30214;52.246;14.408;2023-05-20T04:23:52;10.05;;;4.75;;
44508;SDS011;30214;52.246;14.408;2023-05-20T04:26:20;10.23;;;5.15;;
44508;SDS011;30214;52.246;14.408;2023-05-20T04:28:48;8.77;;;5.45;;
44508;SDS011;30214;52.246;14.408;2023-05-20T04:31:17;9.20;;;5.40;;
44508;SDS011;30214;52.246;14.408;2023-05-20T04:33:45;10.65;;;5.82;;
44508;SDS011;30214;52.246;14.408;2023-05-20T04:36:14;9.38;;;5.70;;
44508;SDS011;30214;52.246;14.408;2023-05-20T04:38:41;9.23;;;5.68;;
44508;SDS011;30214;52.246;14.408;2023-05-20T04:41:09;10.80;;;6.35;;
44508;SDS011;30214;52.246;14.408;2023-05-20T04:43:36;8.88;;;5.55;;
44508;SDS011;30214;52.246;14.408;2023-05-20T04:46:04;11.18;;;5.55;;
44508;SDS011;30214;52.246;14.408;2023-05-20T04:48:34;11.10;;;5.78;;
44508;SDS011;30214;52.246;14.408;2023-05-20T04:51:01;9.70;;;6.00;;
44508;SDS011;30214;52.246;14.408;2023-05-20T04:53:30;11.20;;;5.30;;
44508;SDS011;30214;52.246;14.408;2023-05-20T04:55:59;11.23;;;5.95;;
44508;SDS011;30214;52.246;14.408;2023-05-20T04:58:28;11.98;;;6.35;;
44508;SDS011;30214;52.246;14.408;2023-05-20T05:00:55;12.10;;;5.72;;
44508;SDS011;30214;52.246;14.408;2023-05-20T05:03:24;10.55;;;6.13;;
44508;SDS011;30214;52.246;14.408;2023-05-20T05:05:55;12.38;;;5.90;;
44508;SDS011;30214;52.246;14.408;2023-05-20T05:08:24;10.18;;;5.85;;
44508;SDS011;30214;52.246;14.408;2023-05-20T05:10:52;11.93;;;6.20;;
44508;SDS011;30214;52.246;14.408;2023-05-20T05:13:19;12.15;;;6.03;;
44508;SDS011;30214;52.246;14.408;2023-05-20T05:15:47;14.90;;;6.13;;
44508;SDS011;30214;52.246;14.408;2023-05-20T05:18:14;13.93;;;6.65;;
44508;SDS011;30214;52.246;14.408;2023-05-20T05:20:43;12.90;;;6.30;;
44508;SDS011;30214;52.246;14.408;2023-05-20T05:23:12;13.55;;;6.53;;
44508;SDS011;30214;52.246;14.408;2023-05-20T05:25:39;9.52;;;6.25;;
44508;SDS011;30214;52.246;14.408;2023-05-20T05:28:06;13.52;;;6.35;;
44508;SDS011;30214;52.246;14.408;2023-05-20T05:30:34;12.98;;;6.70;;
44508;SDS011;30214;52.246;14.408;2023-05-20T05:33:01;11.88;;;6.50;;
44508;SDS011;30214;52.246;14.408;2023-05-20T05:35:28;12.40;;;6.35;;
44508;SDS011;30214;52.246;14.408;2023-05-20T05:37:55;10.85;;;6.35;;
44508;SDS011;30214;52.246;14.408;2023-05-20T05:40:25;16.55;;;6.93;;
44508;SDS011;30214;52.246;14.408;2023-05-20T05:42:53;13.93;;;7.32;;
44508;SDS011;30214;52.246;14.408;2023-05-20T05:45:20;10.05;;;6.10;;
44508;SDS011;30214;52.246;14.408;2023-05-20T05:47:47;13.75;;;6.88;;
44508;SDS011;30214;52.246;14.408;2023-05-20T05:50:14;14.63;;;6.70;;
44508;SDS011;30214;52.246;14.408;2023-05-20T05:52:42;12.00;;;6.72;;
44508;SDS011;30214;52.246;14.408;2023-05-20T05:55:09;14.88;;;6.57;;
44508;SDS011;30214;52.246;14.408;2023-05-20T05:57:38;10.23;;;6.80;;
44508;SDS011;30214;52.246;14.408;2023-05-20T06:00:07;16.00;;;6.68;;
44508;SDS011;30214;52.246;14.408;2023-05-20T06:02:44;12.95;;;7.70;;
44508;SDS011;30214;52.246;14.408;2023-05-20T06:05:24;12.52;;;6.70;;
44508;SDS011;30214;52.246;14.408;2023-05-20T06:07:52;10.73;;;6.65;;
44508;SDS011;30214;52.246;14.408;2023-05-20T06:10:19;10.15;;;6.20;;
44508;SDS011;30214;52.246;14.408;2023-05-20T06:12:47;13.70;;;6.80;;
44508;SDS011;30214;52.246;14.408;2023-05-20T06:15:16;13.68;;;6.90;;
44508;SDS011;30214;52.246;14.408;2023-05-20T06:17:44;12.30;;;6.53;;
44508;SDS011;30214;52.246;14.408;2023-05-20T06:20:12;12.20;;;6.70;;
44508;SDS011;30214;52.246;14.408;2023-05-20T06:22:39;17.13;;;7.13;;
44508;SDS011;30214;52.246;14.408;2023-05-20T06:25:06;13.25;;;6.80;;
44508;SDS011;30214;52.246;14.408;2023-05-20T06:27:35;12.00;;;7.13;;
44508;SDS011;30214;52.246;14.408;2023-05-20T06:30:07;12.73;;;6.85;;
44508;SDS011;30214;52.246;14.408;2023-05-20T06:32:35;15.88;;;7.03;;
44508;SDS011;30214;52.246;14.408;2023-05-20T06:35:02;12.80;;;7.40;;
44508;SDS011;30214;52.246;14.408;2023-05-20T06:37:30;13.80;;;6.95;;
44508;SDS011;30214;52.246;14.408;2023-05-20T06:39:58;9.98;;;6.75;;
44508;SDS011;30214;52.246;14.408;2023-05-20T06:42:25;12.73;;;7.32;;
44508;SDS011;30214;52.246;14.408;2023-05-20T06:45:03;12.25;;;7.03;;
44508;SDS011;30214;52.246;14.408;2023-05-20T06:47:52;12.50;;;6.97;;
44508;SDS011;30214;52.246;14.408;2023-05-20T06:50:20;15.30;;;6.78;;
44508;SDS011;30214;52.246;14.408;2023-05-20T06:52:47;11.68;;;6.95;;
44508;SDS011;30214;52.246;14.408;2023-05-20T06:55:14;18.45;;;8.82;;
44508;SDS011;30214;52.246;14.408;2023-05-20T06:57:41;12.35;;;7.95;;
44508;SDS011;30214;52.246;14.408;2023-05-20T07:00:09;18.77;;;7.68;;
44508;SDS011;30214;52.246;14.408;2023-05-20T07:02:40;14.32;;;7.75;;
44508;SDS011;30214;52.246;14.408;2023-05-20T07:05:10;16.35;;;7.97;;
44508;SDS011;30214;52.246;14.408;2023-05-20T07:07:37;16.15;;;8.88;;
44508;SDS011;30214;52.246;14.408;2023-05-20T07:10:05;15.07;;;8.38;;
44508;SDS011;30214;52.246;14.408;2023-05-20T07:12:34;15.80;;;8.23;;
44508;SDS011;30214;52.246;14.408;2023-05-20T07:15:02;15.70;;;8.57;;
44508;SDS011;30214;52.246;14.408;2023-05-20T07:17:31;15.88;;;9.48;;
44508;SDS011;30214;52.246;14.408;2023-05-20T07:19:58;11.38;;;8.73;;
44508;SDS011;30214;52.246;14.408;2023-05-20T07:22:27;14.98;;;9.18;;
44508;SDS011;30214;52.246;14.408;2023-05-20T07:25:13;13.65;;;8.98;;
44508;SDS011;30214;52.246;14.408;2023-05-20T07:27:41;14.50;;;9.32;;
44508;SDS011;30214;52.246;14.408;2023-05-20T07:30:08;15.18;;;9.27;;
44508;SDS011;30214;52.246;14.408;2023-05-20T07:32:37;14.48;;;9.57;;
44508;SDS011;30214;52.246;14.408;2023-05-20T07:35:05;12.50;;;9.30;;
44508;SDS011;30214;52.246;14.408;2023-05-20T07:37:35;16.27;;;9.35;;
44508;SDS011;30214;52.246;14.408;2023-05-20T07:40:02;17.00;;;9.52;;
44508;SDS011;30214;52.246;14.408;2023-05-20T07:42:32;14.95;;;9.68;;
44508;SDS011;30214;52.246;14.408;2023-05-20T07:45:00;13.43;;;8.63;;
44508;SDS011;30214;52.246;14.408;2023-05-20T07:47:29;13.15;;;8.73;;
44508;SDS011;30214;52.246;14.408;2023-05-20T07:50:00;13.20;;;8.85;;
44508;SDS011;30214;52.246;14.408;2023-05-20T07:52:29;17.88;;;9.95;;
44508;SDS011;30214;52.246;14.408;2023-05-20T07:54:58;14.50;;;9.50;;
44508;SDS011;30214;52.246;14.408;2023-05-20T07:57:25;13.63;;;9.35;;
44508;SDS011;30214;52.246;14.408;2023-05-20T07:59:53;16.75;;;9.52;;
44508;SDS011;30214;52.246;14.408;2023-05-20T08:02:20;13.93;;;9.15;;
44508;SDS011;30214;52.246;14.408;2023-05-20T08:04:48;12.48;;;8.68;;
44508;SDS011;30214;52.246;14.408;2023-05-20T08:07:16;15.43;;;9.43;;
44508;SDS011;30214;52.246;14.408;2023-05-20T08:09:50;16.85;;;9.10;;
44508;SDS011;30214;52.246;14.408;2023-05-20T08:12:19;17.48;;;8.30;;
44508;SDS011;30214;52.246;14.408;2023-05-20T08:14:46;12.70;;;8.18;;
44508;SDS011;30214;52.246;14.408;2023-05-20T08:17:13;13.73;;;8.77;;
44508;SDS011;30214;52.246;14.408;2023-05-20T08:19:41;14.48;;;9.35;;
44508;SDS011;30214;52.246;14.408;2023-05-20T08:22:08;17.55;;;9.35;;
44508;SDS011;30214;52.246;14.408;2023-05-20T08:24:36;11.80;;;8.10;;
44508;SDS011;30214;52.246;14.408;2023-05-20T08:27:03;15.55;;;8.38;;
44508;SDS011;30214;52.246;14.408;2023-05-20T08:29:32;14.38;;;8.27;;
44508;SDS011;30214;52.246;14.408;2023-05-20T08:32:00;13.60;;;8.48;;
44508;SDS011;30214;52.246;14.408;2023-05-20T08:34:27;14.18;;;8.45;;
44508;SDS011;30214;52.246;14.408;2023-05-20T08:36:54;16.15;;;9.82;;
44508;SDS011;30214;52.246;14.408;2023-05-20T08:39:22;14.93;;;10.43;;
44508;SDS011;30214;52.246;14.408;2023-05-20T08:41:50;16.50;;;10.13;;
44508;SDS011;30214;52.246;14.408;2023-05-20T08:44:17;15.55;;;9.93;;
44508;SDS011;30214;52.246;14.408;2023-05-20T08:46:48;16.90;;;10.73;;
44508;SDS011;30214;52.246;14.408;2023-05-20T08:49:17;19.92;;;11.15;;
44508;SDS011;30214;52.246;14.408;2023-05-20T08:51:44;19.55;;;10.60;;
44508;SDS011;30214;52.246;14.408;2023-05-20T08:54:12;15.93;;;10.43;;
44508;SDS011;30214;52.246;14.408;2023-05-20T08:56:42;17.63;;;10.98;;
44508;SDS011;30214;52.246;14.408;2023-05-20T08:59:10;16.17;;;10.38;;
44508;SDS011;30214;52.246;14.408;2023-05-20T09:01:40;18.00;;;10.68;;
44508;SDS011;30214;52.246;14.408;2023-05-20T09:04:09;14.98;;;10.27;;
44508;SDS011;30214;52.246;14.408;2023-05-20T09:06:43;17.08;;;10.88;;
44508;SDS011;30214;52.246;14.408;2023-05-20T09:09:11;19.08;;;11.30;;
44508;SDS011;30214;52.246;14.408;2023-05-20T09:11:40;17.52;;;10.82;;
44508;SDS011;30214;52.246;14.408;2023-05-20T09:14:08;19.08;;;10.13;;
44508;SDS011;30214;52.246;14.408;2023-05-20T09:16:35;18.15;;;10.65;;
44508;SDS011;30214;52.246;14.408;2023-05-20T09:19:05;17.17;;;10.68;;
44508;SDS011;30214;52.246;14.408;2023-05-20T09:21:35;18.80;;;10.82;;
44508;SDS011;30214;52.246;14.408;2023-05-20T09:24:03;14.68;;;10.48;;
44508;SDS011;30214;52.246;14.408;2023-05-20T09:26:30;15.52;;;10.63;;
44508;SDS011;30214;52.246;14.408;2023-05-20T09:28:58;17.85;;;11.85;;
44508;SDS011;30214;52.246;14.408;2023-05-20T09:31:26;16.35;;;11.50;;
44508;SDS011;30214;52.246;14.408;2023-05-20T09:33:53;18.23;;;10.45;;
44508;SDS011;30214;52.246;14.408;2023-05-20T09:36:21;18.77;;;11.10;;
44508;SDS011;30214;52.246;14.408;2023-05-20T09:38:51;18.05;;;10.45;;
44508;SDS011;30214;52.246;14.408;2023-05-20T09:41:19;15.40;;;10.10;;
44508;SDS011;30214;52.246;14.408;2023-05-20T09:43:49;16.75;;;10.30;;
44508;SDS011;30214;52.246;14.408;2023-05-20T09:46:18;15.77;;;10.65;;
44508;SDS011;30214;52.246;14.408;2023-05-20T09:48:46;17.75;;;10.95;;
44508;SDS011;30214;52.246;14.408;2023-05-20T09:51:14;15.50;;;10.93;;
44508;SDS011;30214;52.246;14.408;2023-05-20T09:53:42;16.48;;;11.20;;
44508;SDS011;30214;52.246;14.408;2023-05-20T09:56:11;17.10;;;11.38;;
44508;SDS011;30214;52.246;14.408;2023-05-20T09:58:38;19.50;;;12.18;;
44508;SDS011;30214;52.246;14.408;2023-05-20T10:01:08;21.15;;;11.85;;
44508;SDS011;30214;52.246;14.408;2023-05-20T10:03:35;18.70;;;11.63;;
44508;SDS011;30214;52.246;14.408;2023-05-20T10:06:11;18.02;;;11.82;;
44508;SDS011;30214;52.246;14.408;2023-05-20T10:09:05;16.70;;;11.68;;
44508;SDS011;30214;52.246;14.408;2023-05-20T10:11:55;22.50;;;12.65;;
44508;SDS011;30214;52.246;14.408;2023-05-20T10:14:42;17.65;;;11.02;;
44508;SDS011;30214;52.246;14.408;2023-05-20T10:17:27;17.02;;;11.32;;
44508;SDS011;30214;52.246;14.408;2023-05-20T10:20:05;17.48;;;11.15;;
44508;SDS011;30214;52.246;14.408;2023-05-20T10:22:35;16.33;;;10.15;;
44508;SDS011;30214;52.246;14.408;2023-05-20T10:25:04;16.17;;;9.55;;
44508;SDS011;30214;52.246;14.408;2023-05-20T10:27:43;15.02;;;10.10;;
44508;SDS011;30214;52.246;14.408;2023-05-20T10:30:17;16.15;;;9.23;;
44508;SDS011;30214;52.246;14.408;2023-05-20T10:32:51;13.80;;;9.60;;
44508;SDS011;30214;52.246;14.408;2023-05-20T10:37:50;11.18;;;8.32;;
44508;SDS011;30214;52.246;14.408;2023-05-20T10:40:18;14.93;;;9.13;;
44508;SDS011;30214;52.246;14.408;2023-05-20T10:42:50;15.90;;;9.82;;
44508;SDS011;30214;52.246;14.408;2023-05-20T10:45:25;12.98;;;8.60;;
44508;SDS011;30214;52.246;14.408;2023-05-20T10:47:54;12.48;;;8.13;;
44508;SDS011;30214;52.246;14.408;2023-05-20T10:50:27;13.77;;;8.88;;
44508;SDS011;30214;52.246;14.408;2023-05-20T10:53:02;12.45;;;9.20;;
44508;SDS011;30214;52.246;14.408;2023-05-20T10:55:34;16.10;;;8.60;;
44508;SDS011;30214;52.246;14.408;2023-05-20T10:58:04;13.32;;;8.30;;
44508;SDS011;30214;52.246;14.408;2023-05-20T11:00:33;13.93;;;8.35;;
44508;SDS011;30214;52.246;14.408;2023-05-20T11:03:01;15.35;;;8.10;;
44508;SDS011;30214;52.246;14.408;2023-05-20T11:05:31;12.90;;;8.90;;
44508;SDS011;30214;52.246;14.408;2023-05-20T11:08:02;13.32;;;8.27;;
44508;SDS011;30214;52.246;14.408;2023-05-20T11:10:30;13.05;;;9.13;;
44508;SDS011;30214;52.246;14.408;2023-05-20T11:13:00;14.32;;;8.52;;
44508;SDS011;30214;52.246;14.408;2023-05-20T11:15:30;11.95;;;8.25;;
44508;SDS011;30214;52.246;14.408;2023-05-20T11:17:59;14.68;;;8.43;;
44508;SDS011;30214;52.246;14.408;2023-05-20T11:20:29;12.98;;;8.70;;
44508;SDS011;30214;52.246;14.408;2023-05-20T11:22:59;12.20;;;8.65;;
44508;SDS011;30214;52.246;14.408;2023-05-20T11:25:27;11.90;;;8.38;;
44508;SDS011;30214;52.246;14.408;2023-05-20T11:27:54;13.18;;;8.52;;
44508;SDS011;30214;52.246;14.408;2023-05-20T11:30:22;14.02;;;8.85;;
44508;SDS011;30214;52.246;14.408;2023-05-20T11:32:57;12.95;;;8.30;;
44508;SDS011;30214;52.246;14.408;2023-05-20T11:35:26;11.70;;;8.60;;
44508;SDS011;30214;52.246;14.408;2023-05-20T11:37:56;15.30;;;8.93;;
44508;SDS011;30214;52.246;14.408;2023-05-20T11:40:27;10.23;;;7.80;;
44508;SDS011;30214;52.246;14.408;2023-05-20T11:42:56;14.40;;;8.50;;
44508;SDS011;30214;52.246;14.408;2023-05-20T11:45:26;11.90;;;7.90;;
44508;SDS011;30214;52.246;14.408;2023-05-20T11:48:06;10.93;;;7.80;;
44508;SDS011;30214;52.246;14.408;2023-05-20T11:50:34;10.85;;;7.45;;
44508;SDS011;30214;52.246;14.408;2023-05-20T11:53:05;15.20;;;9.02;;
44508;SDS011;30214;52.246;14.408;2023-05-20T11:55:43;15.05;;;8.65;;
44508;SDS011;30214;52.246;14.408;2023-05-20T11:58:14;14.43;;;8.68;;
44508;SDS011;30214;52.246;14.408;2023-05-20T12:00:42;11.90;;;8.52;;
44508;SDS011;30214;52.246;14.408;2023-05-20T12:03:11;11.07;;;8.02;;
44508;SDS011;30214;52.246;14.408;2023-05-20T12:05:38;11.00;;;7.85;;
44508;SDS011;30214;52.246;14.408;2023-05-20T12:08:05;15.48;;;8.82;;
44508;SDS011;30214;52.246;14.408;2023-05-20T12:10:33;12.27;;;8.32;;
44508;SDS011;30214;52.246;14.408;2023-05-20T12:13:01;12.05;;;8.57;;
44508;SDS011;30214;52.246;14.408;2023-05-20T12:15:29;12.45;;;7.53;;
44508;SDS011;30214;52.246;14.408;2023-05-20T12:17:56;12.23;;;8.13;;
44508;SDS011;30214;52.246;14.408;2023-05-20T12:20:25;10.70;;;8.32;;
44508;SDS011;30214;52.246;14.408;2023-05-20T12:22:53;13.98;;;7.68;;
44508;SDS011;30214;52.246;14.408;2023-05-20T12:25:22;10.50;;;8.13;;
44508;SDS011;30214;52.246;14.408;2023-05-20T12:27:50;13.40;;;7.97;;
44508;SDS011;30214;52.246;14.408;2023-05-20T12:30:20;11.13;;;7.30;;
44508;SDS011;30214;52.246;14.408;2023-05-20T12:32:49;12.13;;;7.75;;
44508;SDS011;30214;52.246;14.408;2023-05-20T12:35:16;11.48;;;7.68;;
44508;SDS011;30214;52.246;14.408;2023-05-20T12:38:01;11.82;;;8.23;;
44508;SDS011;30214;52.246;14.408;2023-05-20T12:40:29;13.13;;;8.52;;
44508;SDS011;30214;52.246;14.408;2023-05-20T12:42:59;11.88;;;8.18;;
44508;SDS011;30214;52.246;14.408;2023-05-20T12:45:30;12.57;;;7.75;;
44508;SDS011;30214;52.246;14.408;2023-05-20T12:47:58;13.85;;;8.65;;
44508;SDS011;30214;52.246;14.408;2023-05-20T12:50:27;17.45;;;7.65;;
44508;SDS011;30214;52.246;14.408;2023-05-20T12:52:55;11.93;;;8.02;;
44508;SDS011;30214;52.246;14.408;2023-05-20T12:55:22;11.35;;;7.78;;
44508;SDS011;30214;52.246;14.408;2023-05-20T12:57:49;9.95;;;7.07;;
44508;SDS011;30214;52.246;14.408;2023-05-20T13:00:16;13.70;;;7.90;;
44508;SDS011;30214;52.246;14.408;2023-05-20T13:02:43;12.82;;;6.97;;
44508;SDS011;30214;52.246;14.408;2023-05-20T13:05:10;10.77;;;7.82;;
44508;SDS011;30214;52.246;14.408;2023-05-20T13:07:40;11.27;;;7.13;;
44508;SDS011;30214;52.246;14.408;2023-05-20T13:10:07;10.23;;;7.90;;
44508;SDS011;30214;52.246;14.408;2023-05-20T13:12:35;48.22;;;9.50;;
44508;SDS011;30214;52.246;14.408;2023-05-20T13:15:03;15.05;;;7.40;;
44508;SDS011;30214;52.246;14.408;2023-05-20T13:17:32;9.48;;;7.55;;
44508;SDS011;30214;52.246;14.408;2023-05-20T13:20:00;11.63;;;8.00;;
44508;SDS011;30214;52.246;14.408;2023-05-20T13:22:28;13.23;;;7.10;;
44508;SDS011;30214;52.246;14.408;2023-05-20T13:24:58;12.40;;;7.25;;
44508;SDS011;30214;52.246;14.408;2023-05-20T13:27:26;11.50;;;7.78;;
44508;SDS011;30214;52.246;14.408;2023-05-20T13:29:53;12.27;;;7.32;;
44508;SDS011;30214;52.246;14.408;2023-05-20T13:32:20;10.90;;;7.07;;
44508;SDS011;30214;52.246;14.408;2023-05-20T13:34:48;10.32;;;7.15;;
44508;SDS011;30214;52.246;14.408;2023-05-20T13:37:15;9.45;;;6.88;;
44508;SDS011;30214;52.246;14.408;2023-05-20T13:39:42;10.88;;;7.38;;
44508;SDS011;30214;52.246;14.408;2023-05-20T13:42:11;10.98;;;8.18;;
44508;SDS011;30214;52.246;14.408;2023-05-20T13:44:38;12.45;;;7.28;;
44508;SDS011;30214;52.246;14.408;2023-05-20T13:47:06;11.63;;;6.82;;
44508;SDS011;30214;52.246;14.408;2023-05-20T13:49:33;9.30;;;6.75;;
44508;SDS011;30214;52.246;14.408;2023-05-20T13:52:00;9.20;;;6.78;;
44508;SDS011;30214;52.246;14.408;2023-05-20T13:54:27;14.13;;;6.93;;
44508;SDS011;30214;52.246;14.408;2023-05-20T13:56:54;10.93;;;6.55;;
44508;SDS011;30214;52.246;14.408;2023-05-20T13:59:23;10.80;;;7.00;;
44508;SDS011;30214;52.246;14.408;2023-05-20T14:01:52;11.32;;;6.95;;
44508;SDS011;30214;52.246;14.408;2023-05-20T14:04:19;10.38;;;7.35;;
44508;SDS011;30214;52.246;14.408;2023-05-20T14:06:46;10.55;;;6.97;;
44508;SDS011;30214;52.246;14.408;2023-05-20T14:09:13;10.40;;;6.80;;
44508;SDS011;30214;52.246;14.408;2023-05-20T14:11:40;10.27;;;7.30;;
44508;SDS011;30214;52.246;14.408;2023-05-20T14:14:07;10.52;;;7.90;;
44508;SDS011;30214;52.246;14.408;2023-05-20T14:16:36;11.10;;;7.30;;
44508;SDS011;30214;52.246;14.408;2023-05-20T14:19:04;9.45;;;7.38;;
44508;SDS011;30214;52.246;14.408;2023-05-20T14:21:31;14.95;;;7.57;;
44508;SDS011;30214;52.246;14.408;2023-05-20T14:23:59;11.38;;;6.60;;
44508;SDS011;30214;52.246;14.408;2023-05-20T14:26:26;11.45;;;7.20;;
44508;SDS011;30214;52.246;14.408;2023-05-20T14:28:53;13.25;;;7.43;;
44508;SDS011;30214;52.246;14.408;2023-05-20T14:31:22;13.60;;;7.22;;
44508;SDS011;30214;52.246;14.408;2023-05-20T14:33:51;10.90;;;8.10;;
44508;SDS011;30214;52.246;14.408;2023-05-20T14:36:18;13.27;;;8.20;;